sensor_id;sensor_type;location;lat;lon;timestamp;P1;durP1;ratioP1;P2;durP2;ratioP2
61038;SDS011;46919;45.816;3.104;2022-12-11T00:00:38;20.55;;;11.65;;
61038;SDS011;46919;45.816;3.104;2022-12-11T00:03:04;22.20;;;11.35;;
61038;SDS011;46919;45.816;3.104;2022-12-11T00:05:30;18.98;;;10.00;;
61038;SDS011;46919;45.816;3.104;2022-12-11T00:07:55;21.25;;;10.57;;
61038;SDS011;46919;45.816;3.104;2022-12-11T00:10:21;15.98;;;9.60;;
61038;SDS011;46919;45.816;3.104;2022-12-11T00:12:46;18.40;;;10.60;;
61038;SDS011;46919;45.816;3.104;2022-12-11T00:15:12;18.42;;;9.80;;
61038;SDS011;46919;45.816;3.104;2022-12-11T00:17:37;17.58;;;11.13;;
61038;SDS011;46919;45.816;3.104;2022-12-11T00:20:03;13.88;;;8.52;;
61038;SDS011;46919;45.816;3.104;2022-12-11T00:22:29;12.75;;;7.97;;
61038;SDS011;46919;45.816;3.104;2022-12-11T00:24:55;13.38;;;8.07;;
61038;SDS011;46919;45.816;3.104;2022-12-11T00:27:20;11.73;;;7.15;;
61038;SDS011;46919;45.816;3.104;2022-12-11T00:29:46;18.48;;;10.27;;
61038;SDS011;46919;45.816;3.104;2022-12-11T00:32:11;20.60;;;11.18;;
61038;SDS011;46919;45.816;3.104;2022-12-11T00:34:37;17.40;;;9.30;;
61038;SDS011;46919;45.816;3.104;2022-12-11T00:37:02;16.00;;;8.75;;
61038;SDS011;46919;45.816;3.104;2022-12-11T00:39:27;13.02;;;8.50;;
61038;SDS011;46919;45.816;3.104;2022-12-11T00:41:53;12.30;;;8.00;;
61038;SDS011;46919;45.816;3.104;2022-12-11T00:44:18;15.38;;;9.02;;
61038;SDS011;46919;45.816;3.104;2022-12-11T00:46:44;14.57;;;8.85;;
61038;SDS011;46919;45.816;3.104;2022-12-11T00:49:09;16.17;;;9.32;;
61038;SDS011;46919;45.816;3.104;2022-12-11T00:51:34;24.67;;;12.90;;
61038;SDS011;46919;45.816;3.104;2022-12-11T00:54:00;20.27;;;12.43;;
61038;SDS011;46919;45.816;3.104;2022-12-11T00:56:25;18.63;;;10.15;;
61038;SDS011;46919;45.816;3.104;2022-12-11T00:58:51;18.08;;;9.25;;
61038;SDS011;46919;45.816;3.104;2022-12-11T01:01:18;13.95;;;8.77;;
61038;SDS011;46919;45.816;3.104;2022-12-11T01:03:46;17.42;;;9.05;;
61038;SDS011;46919;45.816;3.104;2022-12-11T01:06:12;17.02;;;8.52;;
61038;SDS011;46919;45.816;3.104;2022-12-11T01:08:40;19.55;;;10.07;;
61038;SDS011;46919;45.816;3.104;2022-12-11T01:11:07;20.55;;;10.18;;
61038;SDS011;46919;45.816;3.104;2022-12-11T01:13:34;18.02;;;9.57;;
61038;SDS011;46919;45.816;3.104;2022-12-11T01:16:04;16.20;;;9.07;;
61038;SDS011;46919;45.816;3.104;2022-12-11T01:18:31;17.85;;;9.60;;
61038;SDS011;46919;45.816;3.104;2022-12-11T01:20:56;18.50;;;9.82;;
61038;SDS011;46919;45.816;3.104;2022-12-11T01:23:22;19.02;;;10.43;;
61038;SDS011;46919;45.816;3.104;2022-12-11T01:25:47;18.02;;;10.82;;
61038;SDS011;46919;45.816;3.104;2022-12-11T01:28:12;19.95;;;10.88;;
61038;SDS011;46919;45.816;3.104;2022-12-11T01:30:40;18.52;;;10.93;;
61038;SDS011;46919;45.816;3.104;2022-12-11T01:33:07;19.30;;;11.00;;
61038;SDS011;46919;45.816;3.104;2022-12-11T01:35:33;18.05;;;10.93;;
61038;SDS011;46919;45.816;3.104;2022-12-11T01:37:59;17.85;;;11.18;;
61038;SDS011;46919;45.816;3.104;2022-12-11T01:40:24;18.90;;;10.85;;
61038;SDS011;46919;45.816;3.104;2022-12-11T01:42:50;16.75;;;10.68;;
61038;SDS011;46919;45.816;3.104;2022-12-11T01:48:01;18.92;;;11.70;;
61038;SDS011;46919;45.816;3.104;2022-12-11T01:50:37;19.13;;;11.13;;
61038;SDS011;46919;45.816;3.104;2022-12-11T01:53:06;18.35;;;10.90;;
61038;SDS011;46919;45.816;3.104;2022-12-11T01:55:34;19.08;;;11.68;;
61038;SDS011;46919;45.816;3.104;2022-12-11T01:58:02;21.00;;;12.02;;
61038;SDS011;46919;45.816;3.104;2022-12-11T02:00:28;27.08;;;13.75;;
61038;SDS011;46919;45.816;3.104;2022-12-11T02:02:53;24.27;;;13.30;;
61038;SDS011;46919;45.816;3.104;2022-12-11T02:05:19;23.30;;;12.35;;
61038;SDS011;46919;45.816;3.104;2022-12-11T02:07:49;20.55;;;12.43;;
61038;SDS011;46919;45.816;3.104;2022-12-11T02:10:18;22.83;;;13.48;;
61038;SDS011;46919;45.816;3.104;2022-12-11T02:18:13;22.83;;;13.13;;
61038;SDS011;46919;45.816;3.104;2022-12-11T02:21:15;22.48;;;13.90;;
61038;SDS011;46919;45.816;3.104;2022-12-11T02:29:48;22.40;;;14.00;;
61038;SDS011;46919;45.816;3.104;2022-12-11T02:32:24;23.13;;;12.77;;
61038;SDS011;46919;45.816;3.104;2022-12-11T02:37:23;22.27;;;12.77;;
61038;SDS011;46919;45.816;3.104;2022-12-11T02:39:53;23.50;;;13.68;;
61038;SDS011;46919;45.816;3.104;2022-12-11T02:42:21;24.25;;;13.32;;
61038;SDS011;46919;45.816;3.104;2022-12-11T02:44:49;22.02;;;12.48;;
61038;SDS011;46919;45.816;3.104;2022-12-11T02:47:16;21.67;;;12.13;;
61038;SDS011;46919;45.816;3.104;2022-12-11T02:49:44;20.35;;;12.68;;
61038;SDS011;46919;45.816;3.104;2022-12-11T02:52:13;23.27;;;11.65;;
61038;SDS011;46919;45.816;3.104;2022-12-11T02:54:42;22.27;;;12.25;;
61038;SDS011;46919;45.816;3.104;2022-12-11T02:57:11;22.58;;;12.18;;
61038;SDS011;46919;45.816;3.104;2022-12-11T02:59:41;24.50;;;12.53;;
61038;SDS011;46919;45.816;3.104;2022-12-11T03:02:09;21.38;;;12.23;;
61038;SDS011;46919;45.816;3.104;2022-12-11T03:04:36;18.75;;;11.38;;
61038;SDS011;46919;45.816;3.104;2022-12-11T03:07:03;23.50;;;12.32;;
61038;SDS011;46919;45.816;3.104;2022-12-11T03:09:37;20.25;;;11.15;;
61038;SDS011;46919;45.816;3.104;2022-12-11T03:12:07;17.77;;;9.80;;
61038;SDS011;46919;45.816;3.104;2022-12-11T03:14:36;16.60;;;10.07;;
61038;SDS011;46919;45.816;3.104;2022-12-11T03:20:04;15.10;;;7.97;;
61038;SDS011;46919;45.816;3.104;2022-12-11T03:22:42;14.07;;;7.97;;
61038;SDS011;46919;45.816;3.104;2022-12-11T03:28:09;12.77;;;6.70;;
61038;SDS011;46919;45.816;3.104;2022-12-11T03:30:35;13.25;;;6.30;;
61038;SDS011;46919;45.816;3.104;2022-12-11T03:33:03;12.40;;;6.75;;
61038;SDS011;46919;45.816;3.104;2022-12-11T03:35:40;11.80;;;6.43;;
61038;SDS011;46919;45.816;3.104;2022-12-11T03:38:17;14.85;;;7.28;;
61038;SDS011;46919;45.816;3.104;2022-12-11T03:40:47;16.08;;;6.68;;
61038;SDS011;46919;45.816;3.104;2022-12-11T03:43:16;21.48;;;8.68;;
61038;SDS011;46919;45.816;3.104;2022-12-11T03:45:42;22.33;;;9.10;;
61038;SDS011;46919;45.816;3.104;2022-12-11T03:48:10;24.73;;;9.35;;
61038;SDS011;46919;45.816;3.104;2022-12-11T03:50:39;22.13;;;9.40;;
61038;SDS011;46919;45.816;3.104;2022-12-11T03:53:05;21.02;;;9.07;;
61038;SDS011;46919;45.816;3.104;2022-12-11T03:55:32;15.88;;;8.68;;
61038;SDS011;46919;45.816;3.104;2022-12-11T03:58:00;19.15;;;8.38;;
61038;SDS011;46919;45.816;3.104;2022-12-11T04:00:25;16.48;;;8.88;;
61038;SDS011;46919;45.816;3.104;2022-12-11T04:02:52;19.42;;;8.70;;
61038;SDS011;46919;45.816;3.104;2022-12-11T04:05:36;19.70;;;9.20;;
61038;SDS011;46919;45.816;3.104;2022-12-11T04:08:01;19.33;;;9.23;;
61038;SDS011;46919;45.816;3.104;2022-12-11T04:10:26;18.42;;;9.40;;
61038;SDS011;46919;45.816;3.104;2022-12-11T04:12:52;18.52;;;9.20;;
61038;SDS011;46919;45.816;3.104;2022-12-11T04:15:18;21.08;;;10.45;;
61038;SDS011;46919;45.816;3.104;2022-12-11T04:17:43;20.88;;;10.18;;
61038;SDS011;46919;45.816;3.104;2022-12-11T04:20:27;28.45;;;10.93;;
61038;SDS011;46919;45.816;3.104;2022-12-11T04:23:13;23.38;;;11.00;;
61038;SDS011;46919;45.816;3.104;2022-12-11T04:26:05;23.27;;;10.70;;
61038;SDS011;46919;45.816;3.104;2022-12-11T04:28:39;17.52;;;9.95;;
61038;SDS011;46919;45.816;3.104;2022-12-11T04:31:05;22.17;;;11.07;;
61038;SDS011;46919;45.816;3.104;2022-12-11T04:33:34;23.40;;;11.20;;
61038;SDS011;46919;45.816;3.104;2022-12-11T04:36:00;17.65;;;10.02;;
61038;SDS011;46919;45.816;3.104;2022-12-11T04:38:25;20.75;;;10.50;;
61038;SDS011;46919;45.816;3.104;2022-12-11T04:41:00;17.08;;;9.10;;
61038;SDS011;46919;45.816;3.104;2022-12-11T04:43:28;20.70;;;10.13;;
61038;SDS011;46919;45.816;3.104;2022-12-11T04:48:33;18.63;;;9.45;;
61038;SDS011;46919;45.816;3.104;2022-12-11T04:50:59;13.85;;;8.27;;
61038;SDS011;46919;45.816;3.104;2022-12-11T04:53:25;19.00;;;9.40;;
61038;SDS011;46919;45.816;3.104;2022-12-11T04:55:51;13.55;;;7.03;;
61038;SDS011;46919;45.816;3.104;2022-12-11T04:58:16;15.40;;;8.10;;
61038;SDS011;46919;45.816;3.104;2022-12-11T05:00:42;12.18;;;6.75;;
61038;SDS011;46919;45.816;3.104;2022-12-11T05:03:07;11.63;;;6.60;;
61038;SDS011;46919;45.816;3.104;2022-12-11T05:05:33;13.55;;;6.85;;
61038;SDS011;46919;45.816;3.104;2022-12-11T05:07:58;15.45;;;7.60;;
61038;SDS011;46919;45.816;3.104;2022-12-11T05:10:24;15.65;;;7.35;;
61038;SDS011;46919;45.816;3.104;2022-12-11T05:12:49;18.88;;;7.65;;
61038;SDS011;46919;45.816;3.104;2022-12-11T05:15:15;14.75;;;7.85;;
61038;SDS011;46919;45.816;3.104;2022-12-11T05:17:41;20.52;;;8.90;;
61038;SDS011;46919;45.816;3.104;2022-12-11T05:20:06;23.55;;;10.48;;
61038;SDS011;46919;45.816;3.104;2022-12-11T05:22:32;24.17;;;10.40;;
61038;SDS011;46919;45.816;3.104;2022-12-11T05:24:57;25.63;;;11.27;;
61038;SDS011;46919;45.816;3.104;2022-12-11T05:27:23;26.85;;;12.48;;
61038;SDS011;46919;45.816;3.104;2022-12-11T05:29:48;20.15;;;9.95;;
61038;SDS011;46919;45.816;3.104;2022-12-11T05:32:14;20.95;;;9.57;;
61038;SDS011;46919;45.816;3.104;2022-12-11T05:34:39;25.50;;;10.40;;
61038;SDS011;46919;45.816;3.104;2022-12-11T05:37:05;18.52;;;9.63;;
61038;SDS011;46919;45.816;3.104;2022-12-11T05:39:30;21.73;;;10.98;;
61038;SDS011;46919;45.816;3.104;2022-12-11T05:41:56;24.48;;;10.68;;
61038;SDS011;46919;45.816;3.104;2022-12-11T05:44:21;20.73;;;9.88;;
61038;SDS011;46919;45.816;3.104;2022-12-11T05:46:46;25.77;;;11.30;;
61038;SDS011;46919;45.816;3.104;2022-12-11T05:49:12;20.67;;;10.52;;
61038;SDS011;46919;45.816;3.104;2022-12-11T05:51:37;20.45;;;9.18;;
61038;SDS011;46919;45.816;3.104;2022-12-11T05:54:03;22.17;;;11.20;;
61038;SDS011;46919;45.816;3.104;2022-12-11T05:56:30;24.40;;;11.10;;
61038;SDS011;46919;45.816;3.104;2022-12-11T05:58:57;21.40;;;10.27;;
61038;SDS011;46919;45.816;3.104;2022-12-11T06:01:28;20.45;;;10.55;;
61038;SDS011;46919;45.816;3.104;2022-12-11T06:03:55;21.02;;;10.68;;
61038;SDS011;46919;45.816;3.104;2022-12-11T06:06:21;19.15;;;10.70;;
61038;SDS011;46919;45.816;3.104;2022-12-11T06:08:51;20.67;;;10.55;;
61038;SDS011;46919;45.816;3.104;2022-12-11T06:11:18;20.10;;;10.20;;
61038;SDS011;46919;45.816;3.104;2022-12-11T06:13:43;19.20;;;9.40;;
61038;SDS011;46919;45.816;3.104;2022-12-11T06:16:09;15.60;;;8.90;;
61038;SDS011;46919;45.816;3.104;2022-12-11T06:18:36;18.45;;;8.82;;
61038;SDS011;46919;45.816;3.104;2022-12-11T06:21:24;17.45;;;8.73;;
61038;SDS011;46919;45.816;3.104;2022-12-11T06:23:50;15.50;;;7.15;;
61038;SDS011;46919;45.816;3.104;2022-12-11T06:26:17;15.82;;;8.52;;
61038;SDS011;46919;45.816;3.104;2022-12-11T06:28:44;18.80;;;8.85;;
61038;SDS011;46919;45.816;3.104;2022-12-11T06:31:10;16.08;;;7.63;;
61038;SDS011;46919;45.816;3.104;2022-12-11T06:33:36;15.07;;;7.07;;
61038;SDS011;46919;45.816;3.104;2022-12-11T06:36:05;11.15;;;7.03;;
61038;SDS011;46919;45.816;3.104;2022-12-11T06:38:32;14.45;;;6.93;;
61038;SDS011;46919;45.816;3.104;2022-12-11T06:40:58;13.13;;;7.32;;
61038;SDS011;46919;45.816;3.104;2022-12-11T06:43:25;15.32;;;6.88;;
61038;SDS011;46919;45.816;3.104;2022-12-11T06:45:51;12.13;;;6.63;;
61038;SDS011;46919;45.816;3.104;2022-12-11T06:48:17;9.32;;;5.93;;
61038;SDS011;46919;45.816;3.104;2022-12-11T06:50:43;14.50;;;7.45;;
61038;SDS011;46919;45.816;3.104;2022-12-11T06:53:08;12.68;;;6.63;;
61038;SDS011;46919;45.816;3.104;2022-12-11T06:55:35;9.20;;;5.45;;
61038;SDS011;46919;45.816;3.104;2022-12-11T06:58:01;14.32;;;6.22;;
61038;SDS011;46919;45.816;3.104;2022-12-11T07:00:26;10.13;;;5.82;;
61038;SDS011;46919;45.816;3.104;2022-12-11T07:02:52;11.40;;;6.00;;
61038;SDS011;46919;45.816;3.104;2022-12-11T07:05:17;9.20;;;5.50;;
61038;SDS011;46919;45.816;3.104;2022-12-11T07:07:43;8.40;;;4.88;;
61038;SDS011;46919;45.816;3.104;2022-12-11T07:10:09;12.00;;;5.45;;
61038;SDS011;46919;45.816;3.104;2022-12-11T07:12:35;10.55;;;5.68;;
61038;SDS011;46919;45.816;3.104;2022-12-11T07:15:01;13.45;;;7.35;;
61038;SDS011;46919;45.816;3.104;2022-12-11T07:17:27;12.82;;;6.90;;
61038;SDS011;46919;45.816;3.104;2022-12-11T07:19:53;12.02;;;5.97;;
61038;SDS011;46919;45.816;3.104;2022-12-11T07:22:18;11.75;;;5.75;;
61038;SDS011;46919;45.816;3.104;2022-12-11T07:24:43;10.20;;;5.55;;
61038;SDS011;46919;45.816;3.104;2022-12-11T07:27:09;11.02;;;5.53;;
61038;SDS011;46919;45.816;3.104;2022-12-11T07:29:35;9.45;;;5.82;;
61038;SDS011;46919;45.816;3.104;2022-12-11T07:32:00;10.90;;;5.65;;
61038;SDS011;46919;45.816;3.104;2022-12-11T07:34:25;13.25;;;6.50;;
61038;SDS011;46919;45.816;3.104;2022-12-11T07:36:51;12.05;;;6.05;;
61038;SDS011;46919;45.816;3.104;2022-12-11T07:39:16;11.40;;;5.88;;
61038;SDS011;46919;45.816;3.104;2022-12-11T07:41:42;10.55;;;6.57;;
61038;SDS011;46919;45.816;3.104;2022-12-11T07:44:07;13.07;;;7.30;;
61038;SDS011;46919;45.816;3.104;2022-12-11T07:46:33;11.00;;;6.88;;
61038;SDS011;46919;45.816;3.104;2022-12-11T07:48:59;13.70;;;7.13;;
61038;SDS011;46919;45.816;3.104;2022-12-11T07:51:29;14.38;;;7.15;;
61038;SDS011;46919;45.816;3.104;2022-12-11T07:53:57;13.30;;;7.15;;
61038;SDS011;46919;45.816;3.104;2022-12-11T07:56:25;15.75;;;8.57;;
61038;SDS011;46919;45.816;3.104;2022-12-11T07:58:51;16.83;;;8.32;;
61038;SDS011;46919;45.816;3.104;2022-12-11T08:03:43;17.20;;;9.20;;
61038;SDS011;46919;45.816;3.104;2022-12-11T08:06:09;16.50;;;9.88;;
61038;SDS011;46919;45.816;3.104;2022-12-11T08:08:35;22.13;;;9.90;;
61038;SDS011;46919;45.816;3.104;2022-12-11T08:11:05;18.55;;;10.82;;
61038;SDS011;46919;45.816;3.104;2022-12-11T08:13:32;19.45;;;11.20;;
61038;SDS011;46919;45.816;3.104;2022-12-11T08:15:58;21.80;;;11.65;;
61038;SDS011;46919;45.816;3.104;2022-12-11T08:18:26;18.90;;;10.15;;
61038;SDS011;46919;45.816;3.104;2022-12-11T08:20:52;23.27;;;11.40;;
61038;SDS011;46919;45.816;3.104;2022-12-11T08:23:17;26.60;;;14.82;;
61038;SDS011;46919;45.816;3.104;2022-12-11T08:25:43;34.00;;;18.55;;
61038;SDS011;46919;45.816;3.104;2022-12-11T08:28:08;34.40;;;18.33;;
61038;SDS011;46919;45.816;3.104;2022-12-11T08:30:33;31.83;;;16.88;;
61038;SDS011;46919;45.816;3.104;2022-12-11T08:32:59;30.00;;;14.25;;
61038;SDS011;46919;45.816;3.104;2022-12-11T08:35:24;27.17;;;14.38;;
61038;SDS011;46919;45.816;3.104;2022-12-11T08:37:50;25.70;;;15.25;;
61038;SDS011;46919;45.816;3.104;2022-12-11T08:40:15;26.98;;;15.50;;
61038;SDS011;46919;45.816;3.104;2022-12-11T08:42:41;25.00;;;13.77;;
61038;SDS011;46919;45.816;3.104;2022-12-11T08:45:06;25.58;;;13.60;;
61038;SDS011;46919;45.816;3.104;2022-12-11T08:47:32;23.08;;;13.00;;
61038;SDS011;46919;45.816;3.104;2022-12-11T08:49:58;25.92;;;13.95;;
61038;SDS011;46919;45.816;3.104;2022-12-11T08:52:23;27.77;;;15.30;;
61038;SDS011;46919;45.816;3.104;2022-12-11T08:54:48;28.45;;;15.73;;
61038;SDS011;46919;45.816;3.104;2022-12-11T08:57:14;25.88;;;14.40;;
61038;SDS011;46919;45.816;3.104;2022-12-11T08:59:39;26.27;;;15.07;;
61038;SDS011;46919;45.816;3.104;2022-12-11T09:02:05;27.35;;;14.65;;
61038;SDS011;46919;45.816;3.104;2022-12-11T09:04:30;23.58;;;13.43;;
61038;SDS011;46919;45.816;3.104;2022-12-11T09:06:56;15.48;;;9.85;;
61038;SDS011;46919;45.816;3.104;2022-12-11T09:09:21;17.13;;;9.57;;
61038;SDS011;46919;45.816;3.104;2022-12-11T09:11:47;14.50;;;9.43;;
61038;SDS011;46919;45.816;3.104;2022-12-11T09:14:13;13.40;;;8.95;;
61038;SDS011;46919;45.816;3.104;2022-12-11T09:16:40;16.13;;;9.60;;
61038;SDS011;46919;45.816;3.104;2022-12-11T09:19:06;12.10;;;8.00;;
61038;SDS011;46919;45.816;3.104;2022-12-11T09:21:33;14.27;;;9.25;;
61038;SDS011;46919;45.816;3.104;2022-12-11T09:23:59;12.93;;;8.40;;
61038;SDS011;46919;45.816;3.104;2022-12-11T09:26:26;11.25;;;7.70;;
61038;SDS011;46919;45.816;3.104;2022-12-11T09:28:52;13.52;;;7.60;;
61038;SDS011;46919;45.816;3.104;2022-12-11T09:31:23;14.23;;;8.57;;
61038;SDS011;46919;45.816;3.104;2022-12-11T09:33:53;12.43;;;8.60;;
61038;SDS011;46919;45.816;3.104;2022-12-11T09:36:21;13.02;;;8.70;;
61038;SDS011;46919;45.816;3.104;2022-12-11T09:38:46;13.23;;;8.02;;
61038;SDS011;46919;45.816;3.104;2022-12-11T09:43:44;12.30;;;7.47;;
61038;SDS011;46919;45.816;3.104;2022-12-11T09:46:15;12.90;;;7.97;;
61038;SDS011;46919;45.816;3.104;2022-12-11T09:48:42;14.45;;;8.63;;
61038;SDS011;46919;45.816;3.104;2022-12-11T09:51:16;11.95;;;7.43;;
61038;SDS011;46919;45.816;3.104;2022-12-11T09:53:48;11.05;;;6.75;;
61038;SDS011;46919;45.816;3.104;2022-12-11T09:59:08;13.85;;;8.60;;
61038;SDS011;46919;45.816;3.104;2022-12-11T10:05:12;11.25;;;7.00;;
61038;SDS011;46919;45.816;3.104;2022-12-11T10:13:03;10.73;;;6.93;;
61038;SDS011;46919;45.816;3.104;2022-12-11T10:15:39;10.70;;;6.30;;
61038;SDS011;46919;45.816;3.104;2022-12-11T10:18:11;11.63;;;7.00;;
61038;SDS011;46919;45.816;3.104;2022-12-11T10:20:40;9.55;;;6.32;;
61038;SDS011;46919;45.816;3.104;2022-12-11T10:23:16;9.98;;;6.97;;
61038;SDS011;46919;45.816;3.104;2022-12-11T10:26:01;14.90;;;8.35;;
61038;SDS011;46919;45.816;3.104;2022-12-11T10:28:43;13.63;;;6.63;;
61038;SDS011;46919;45.816;3.104;2022-12-11T10:31:16;11.15;;;7.05;;
61038;SDS011;46919;45.816;3.104;2022-12-11T10:33:54;10.85;;;6.63;;
61038;SDS011;46919;45.816;3.104;2022-12-11T10:38:58;12.32;;;7.38;;
61038;SDS011;46919;45.816;3.104;2022-12-11T10:41:28;12.48;;;7.43;;
61038;SDS011;46919;45.816;3.104;2022-12-11T10:43:59;13.02;;;7.65;;
61038;SDS011;46919;45.816;3.104;2022-12-11T10:46:26;12.98;;;7.95;;
61038;SDS011;46919;45.816;3.104;2022-12-11T10:48:57;11.90;;;8.00;;
61038;SDS011;46919;45.816;3.104;2022-12-11T10:51:35;13.23;;;7.57;;
61038;SDS011;46919;45.816;3.104;2022-12-11T10:56:32;11.52;;;7.88;;
61038;SDS011;46919;45.816;3.104;2022-12-11T10:59:00;13.23;;;8.63;;
61038;SDS011;46919;45.816;3.104;2022-12-11T11:01:26;12.60;;;7.85;;
61038;SDS011;46919;45.816;3.104;2022-12-11T11:04:04;11.90;;;7.40;;
61038;SDS011;46919;45.816;3.104;2022-12-11T11:06:38;11.60;;;7.72;;
61038;SDS011;46919;45.816;3.104;2022-12-11T11:09:21;12.68;;;7.90;;
61038;SDS011;46919;45.816;3.104;2022-12-11T11:11:53;11.48;;;7.38;;
61038;SDS011;46919;45.816;3.104;2022-12-11T11:14:20;14.55;;;6.85;;
61038;SDS011;46919;45.816;3.104;2022-12-11T11:16:47;13.40;;;8.10;;
61038;SDS011;46919;45.816;3.104;2022-12-11T11:19:22;12.70;;;7.20;;
61038;SDS011;46919;45.816;3.104;2022-12-11T11:21:58;10.75;;;6.63;;
61038;SDS011;46919;45.816;3.104;2022-12-11T11:27:24;11.77;;;7.25;;
61038;SDS011;46919;45.816;3.104;2022-12-11T11:29:55;12.55;;;7.68;;
61038;SDS011;46919;45.816;3.104;2022-12-11T11:32:30;13.98;;;8.32;;
61038;SDS011;46919;45.816;3.104;2022-12-11T11:35:05;10.45;;;7.00;;
61038;SDS011;46919;45.816;3.104;2022-12-11T11:37:36;9.73;;;6.45;;
61038;SDS011;46919;45.816;3.104;2022-12-11T11:40:10;9.68;;;6.68;;
61038;SDS011;46919;45.816;3.104;2022-12-11T11:45:24;10.73;;;6.80;;
61038;SDS011;46919;45.816;3.104;2022-12-11T11:47:57;11.68;;;6.78;;
61038;SDS011;46919;45.816;3.104;2022-12-11T11:50:30;9.55;;;6.47;;
61038;SDS011;46919;45.816;3.104;2022-12-11T11:56:06;11.23;;;7.13;;
61038;SDS011;46919;45.816;3.104;2022-12-11T11:58:58;9.55;;;7.18;;
61038;SDS011;46919;45.816;3.104;2022-12-11T12:01:41;12.18;;;7.47;;
61038;SDS011;46919;45.816;3.104;2022-12-11T12:04:07;10.35;;;6.75;;
61038;SDS011;46919;45.816;3.104;2022-12-11T12:06:39;10.95;;;7.07;;
61038;SDS011;46919;45.816;3.104;2022-12-11T12:20:42;12.13;;;8.10;;
61038;SDS011;46919;45.816;3.104;2022-12-11T12:23:22;11.60;;;8.10;;
61038;SDS011;46919;45.816;3.104;2022-12-11T12:42:05;8.45;;;6.20;;
61038;SDS011;46919;45.816;3.104;2022-12-11T12:47:18;9.53;;;6.63;;
61038;SDS011;46919;45.816;3.104;2022-12-11T12:49:45;9.88;;;6.55;;
61038;SDS011;46919;45.816;3.104;2022-12-11T12:52:14;10.88;;;6.85;;
61038;SDS011;46919;45.816;3.104;2022-12-11T12:54:43;8.65;;;6.07;;
61038;SDS011;46919;45.816;3.104;2022-12-11T12:57:34;9.15;;;5.82;;
61038;SDS011;46919;45.816;3.104;2022-12-11T13:00:02;9.48;;;5.88;;
61038;SDS011;46919;45.816;3.104;2022-12-11T13:02:29;9.77;;;6.57;;
61038;SDS011;46919;45.816;3.104;2022-12-11T13:04:56;8.35;;;6.15;;
61038;SDS011;46919;45.816;3.104;2022-12-11T13:07:28;8.90;;;6.15;;
61038;SDS011;46919;45.816;3.104;2022-12-11T13:10:01;10.75;;;6.68;;
61038;SDS011;46919;45.816;3.104;2022-12-11T13:12:32;9.13;;;5.50;;
61038;SDS011;46919;45.816;3.104;2022-12-11T13:15:04;7.72;;;6.18;;
61038;SDS011;46919;45.816;3.104;2022-12-11T13:17:37;8.02;;;5.97;;
61038;SDS011;46919;45.816;3.104;2022-12-11T13:20:20;7.93;;;5.43;;
61038;SDS011;46919;45.816;3.104;2022-12-11T13:22:48;7.40;;;5.68;;
61038;SDS011;46919;45.816;3.104;2022-12-11T13:25:29;7.57;;;5.57;;
61038;SDS011;46919;45.816;3.104;2022-12-11T13:28:06;8.05;;;5.68;;
61038;SDS011;46919;45.816;3.104;2022-12-11T13:30:43;7.18;;;5.30;;
61038;SDS011;46919;45.816;3.104;2022-12-11T13:33:16;8.88;;;5.70;;
61038;SDS011;46919;45.816;3.104;2022-12-11T13:35:43;8.55;;;5.90;;
61038;SDS011;46919;45.816;3.104;2022-12-11T13:38:14;8.27;;;5.60;;
61038;SDS011;46919;45.816;3.104;2022-12-11T13:40:43;8.25;;;5.55;;
61038;SDS011;46919;45.816;3.104;2022-12-11T13:43:17;8.52;;;5.50;;
61038;SDS011;46919;45.816;3.104;2022-12-11T13:45:50;8.20;;;5.63;;
61038;SDS011;46919;45.816;3.104;2022-12-11T13:48:23;8.02;;;5.38;;
61038;SDS011;46919;45.816;3.104;2022-12-11T13:50:53;14.05;;;10.40;;
61038;SDS011;46919;45.816;3.104;2022-12-11T13:53:20;20.52;;;15.85;;
61038;SDS011;46919;45.816;3.104;2022-12-11T13:55:46;9.73;;;6.55;;
61038;SDS011;46919;45.816;3.104;2022-12-11T13:58:21;9.52;;;6.97;;
61038;SDS011;46919;45.816;3.104;2022-12-11T14:01:06;9.63;;;7.07;;
61038;SDS011;46919;45.816;3.104;2022-12-11T14:03:35;14.40;;;8.20;;
61038;SDS011;46919;45.816;3.104;2022-12-11T14:06:10;9.63;;;6.85;;
61038;SDS011;46919;45.816;3.104;2022-12-11T14:08:37;9.35;;;6.40;;
61038;SDS011;46919;45.816;3.104;2022-12-11T14:11:06;11.65;;;7.50;;
61038;SDS011;46919;45.816;3.104;2022-12-11T14:13:33;11.38;;;7.25;;
61038;SDS011;46919;45.816;3.104;2022-12-11T14:16:00;13.45;;;8.88;;
61038;SDS011;46919;45.816;3.104;2022-12-11T14:18:27;8.98;;;7.25;;
61038;SDS011;46919;45.816;3.104;2022-12-11T14:20:59;11.98;;;7.75;;
61038;SDS011;46919;45.816;3.104;2022-12-11T14:23:33;11.68;;;6.88;;
61038;SDS011;46919;45.816;3.104;2022-12-11T14:26:01;9.70;;;6.90;;
61038;SDS011;46919;45.816;3.104;2022-12-11T14:28:29;9.25;;;6.90;;
61038;SDS011;46919;45.816;3.104;2022-12-11T14:33:31;10.57;;;6.55;;
61038;SDS011;46919;45.816;3.104;2022-12-11T14:36:01;10.73;;;7.22;;
61038;SDS011;46919;45.816;3.104;2022-12-11T14:38:29;14.65;;;9.75;;
61038;SDS011;46919;45.816;3.104;2022-12-11T14:41:06;12.32;;;8.18;;
61038;SDS011;46919;45.816;3.104;2022-12-11T14:43:42;9.85;;;6.63;;
61038;SDS011;46919;45.816;3.104;2022-12-11T14:46:16;9.15;;;6.18;;
61038;SDS011;46919;45.816;3.104;2022-12-11T14:48:47;9.02;;;6.25;;
61038;SDS011;46919;45.816;3.104;2022-12-11T14:51:20;10.10;;;5.78;;
61038;SDS011;46919;45.816;3.104;2022-12-11T14:53:47;12.02;;;7.38;;
61038;SDS011;46919;45.816;3.104;2022-12-11T14:56:24;9.32;;;6.68;;
61038;SDS011;46919;45.816;3.104;2022-12-11T14:58:57;14.30;;;7.68;;
61038;SDS011;46919;45.816;3.104;2022-12-11T15:01:30;12.00;;;7.93;;
61038;SDS011;46919;45.816;3.104;2022-12-11T15:04:02;9.13;;;7.28;;
61038;SDS011;46919;45.816;3.104;2022-12-11T15:06:47;10.25;;;7.47;;
61038;SDS011;46919;45.816;3.104;2022-12-11T15:09:24;17.67;;;10.07;;
61038;SDS011;46919;45.816;3.104;2022-12-11T15:11:52;16.15;;;9.57;;
61038;SDS011;46919;45.816;3.104;2022-12-11T15:14:21;20.70;;;10.88;;
61038;SDS011;46919;45.816;3.104;2022-12-11T15:16:49;16.52;;;9.95;;
61038;SDS011;46919;45.816;3.104;2022-12-11T15:19:27;14.65;;;8.77;;
61038;SDS011;46919;45.816;3.104;2022-12-11T15:22:00;14.70;;;9.35;;
61038;SDS011;46919;45.816;3.104;2022-12-11T15:24:38;13.45;;;8.35;;
61038;SDS011;46919;45.816;3.104;2022-12-11T15:27:21;12.38;;;7.65;;
61038;SDS011;46919;45.816;3.104;2022-12-11T15:29:48;17.80;;;10.93;;
61038;SDS011;46919;45.816;3.104;2022-12-11T15:34:57;14.23;;;9.45;;
61038;SDS011;46919;45.816;3.104;2022-12-11T15:37:30;17.13;;;9.18;;
61038;SDS011;46919;45.816;3.104;2022-12-11T15:39:59;12.35;;;8.40;;
61038;SDS011;46919;45.816;3.104;2022-12-11T15:44:59;17.00;;;9.80;;
61038;SDS011;46919;45.816;3.104;2022-12-11T15:47:27;16.02;;;10.43;;
61038;SDS011;46919;45.816;3.104;2022-12-11T15:50:01;16.67;;;9.45;;
61038;SDS011;46919;45.816;3.104;2022-12-11T15:52:32;14.85;;;9.52;;
61038;SDS011;46919;45.816;3.104;2022-12-11T15:54:58;12.88;;;8.60;;
61038;SDS011;46919;45.816;3.104;2022-12-11T15:57:23;11.63;;;8.20;;
61038;SDS011;46919;45.816;3.104;2022-12-11T15:59:49;12.88;;;8.15;;
61038;SDS011;46919;45.816;3.104;2022-12-11T16:02:17;11.63;;;8.10;;
61038;SDS011;46919;45.816;3.104;2022-12-11T16:04:42;12.27;;;7.97;;
61038;SDS011;46919;45.816;3.104;2022-12-11T16:07:15;11.63;;;7.90;;
61038;SDS011;46919;45.816;3.104;2022-12-11T16:09:42;14.63;;;9.32;;
61038;SDS011;46919;45.816;3.104;2022-12-11T16:12:08;11.63;;;8.60;;
61038;SDS011;46919;45.816;3.104;2022-12-11T16:14:34;17.40;;;9.30;;
61038;SDS011;46919;45.816;3.104;2022-12-11T16:17:02;15.52;;;9.25;;